createdAt,value
2018-12-07T00:01:32.712Z,12.00
2018-12-07T00:04:01.212Z,12.00
2018-12-07T00:06:30.106Z,12.00
2018-12-07T00:08:58.988Z,12.00
2018-12-07T00:11:27.417Z,12.00
2018-12-07T00:13:55.857Z,12.10
2018-12-07T00:16:24.265Z,12.10
2018-12-07T00:18:52.741Z,12.10
2018-12-07T00:21:21.065Z,12.10
2018-12-07T00:23:49.453Z,12.10
2018-12-07T00:26:17.942Z,12.10
2018-12-07T00:28:46.495Z,12.10
2018-12-07T00:31:14.834Z,12.10
2018-12-07T00:33:43.257Z,12.10
2018-12-07T00:36:11.614Z,12.10
2018-12-07T00:38:40.408Z,12.20
2018-12-07T00:41:08.759Z,12.20
2018-12-07T00:43:37.139Z,12.20
2018-12-07T00:46:05.549Z,12.20
2018-12-07T00:48:34.083Z,12.20
2018-12-07T00:51:02.440Z,12.20
2018-12-07T00:53:30.829Z,12.30
2018-12-07T00:55:59.161Z,12.20
2018-12-07T00:58:27.521Z,12.30
2018-12-07T01:00:56.115Z,12.20
2018-12-07T01:03:24.621Z,12.20
2018-12-07T01:05:53.079Z,12.20
2018-12-07T01:08:21.441Z,12.20
2018-12-07T01:10:53.825Z,12.20
2018-12-07T01:13:22.205Z,12.30
2018-12-07T01:15:50.691Z,12.20
2018-12-07T01:18:19.106Z,12.20
2018-12-07T01:20:47.481Z,12.20
2018-12-07T01:23:15.804Z,12.20
2018-12-07T01:25:44.310Z,12.20
2018-12-07T01:28:12.710Z,12.20
2018-12-07T01:30:41.107Z,12.20
2018-12-07T01:33:09.457Z,12.20
2018-12-07T01:35:37.808Z,12.20
2018-12-07T01:38:06.161Z,12.20
2018-12-07T01:40:34.568Z,12.20
2018-12-07T01:43:02.945Z,12.20
2018-12-07T01:45:31.362Z,12.20
2018-12-07T01:47:59.724Z,12.20
2018-12-07T01:50:28.087Z,12.30
2018-12-07T01:53:00.762Z,12.20
2018-12-07T01:55:29.121Z,12.20
2018-12-07T01:57:57.511Z,12.30
2018-12-07T02:00:25.832Z,12.20
2018-12-07T02:02:54.196Z,12.30
2018-12-07T02:05:22.541Z,12.30
2018-12-07T02:07:50.929Z,12.30
2018-12-07T02:10:19.301Z,12.30
2018-12-07T02:12:47.688Z,12.30
2018-12-07T02:15:16.070Z,12.30
2018-12-07T02:17:44.796Z,12.30
2018-12-07T02:20:13.377Z,12.30
2018-12-07T02:22:41.768Z,12.20
2018-12-07T02:25:10.203Z,12.30
2018-12-07T02:27:43.983Z,12.30
2018-12-07T02:30:12.357Z,12.30
2018-12-07T02:32:40.826Z,12.30
2018-12-07T02:35:09.242Z,12.30
2018-12-07T02:37:37.696Z,12.30
2018-12-07T02:40:06.328Z,12.30
2018-12-07T02:42:34.791Z,12.30
2018-12-07T02:45:03.260Z,12.30
2018-12-07T02:47:31.650Z,12.30
2018-12-07T02:50:00.049Z,12.30
2018-12-07T02:52:28.405Z,12.30
2018-12-07T02:55:01.086Z,12.30
2018-12-07T02:57:29.458Z,12.30
2018-12-07T02:59:57.776Z,12.40
2018-12-07T03:02:26.113Z,12.40
2018-12-07T03:04:54.479Z,12.30
2018-12-07T03:07:22.808Z,12.30
2018-12-07T03:09:51.270Z,12.30
2018-12-07T03:12:19.689Z,12.30
2018-12-07T03:14:48.721Z,12.30
2018-12-07T03:17:17.089Z,12.30
2018-12-07T03:19:45.531Z,12.30
2018-12-07T03:22:14.037Z,12.40
2018-12-07T03:24:42.375Z,12.40
2018-12-07T03:27:11.004Z,12.40
2018-12-07T03:29:39.410Z,12.40
2018-12-07T03:32:07.734Z,12.40
2018-12-07T03:34:36.161Z,12.40
2018-12-07T03:37:04.660Z,12.40
2018-12-07T03:39:32.999Z,12.40
2018-12-07T03:42:01.496Z,12.50
2018-12-07T03:44:29.858Z,12.40
2018-12-07T03:46:58.782Z,12.50
2018-12-07T03:49:27.204Z,12.40
2018-12-07T03:51:55.675Z,12.40
2018-12-07T03:54:24.136Z,12.40
2018-12-07T03:56:52.912Z,12.40
2018-12-07T03:59:21.462Z,12.40
2018-12-07T04:01:49.954Z,12.40
2018-12-07T04:04:18.324Z,12.40
2018-12-07T04:06:46.777Z,12.50
2018-12-07T04:09:15.117Z,12.50
2018-12-07T04:11:43.568Z,12.50
2018-12-07T04:14:11.883Z,12.40
2018-12-07T04:16:40.296Z,12.40
2018-12-07T04:19:08.684Z,12.40
2018-12-07T04:21:37.157Z,12.40
2018-12-07T04:24:05.543Z,12.40
2018-12-07T04:26:33.900Z,12.40
2018-12-07T04:29:02.237Z,12.50
2018-12-07T04:31:30.613Z,12.50
2018-12-07T04:33:59.648Z,12.50
2018-12-07T04:36:27.960Z,12.40
2018-12-07T04:38:56.317Z,12.40
2018-12-07T04:41:24.649Z,12.40
2018-12-07T04:43:53.057Z,12.40
2018-12-07T04:46:21.412Z,12.40
2018-12-07T04:48:49.721Z,12.40
2018-12-07T04:51:18.102Z,12.40
2018-12-07T04:53:46.498Z,12.30
2018-12-07T04:56:14.844Z,12.40
2018-12-07T04:58:43.198Z,12.30
2018-12-07T05:01:11.673Z,12.30
2018-12-07T05:03:40.175Z,12.30
2018-12-07T05:06:08.524Z,12.20
2018-12-07T05:08:36.887Z,12.20
2018-12-07T05:11:05.306Z,12.10
2018-12-07T05:13:33.766Z,12.10
2018-12-07T05:16:02.360Z,12.10
2018-12-07T05:18:30.788Z,12.00
2018-12-07T05:20:59.253Z,12.00
2018-12-07T05:23:27.680Z,11.90
2018-12-07T05:25:56.972Z,11.90
2018-12-07T05:28:25.326Z,11.80
2018-12-07T05:30:53.690Z,11.80
2018-12-07T05:33:22.056Z,11.80
2018-12-07T05:35:50.569Z,11.70
2018-12-07T05:38:18.945Z,11.70
2018-12-07T05:40:47.305Z,11.70
2018-12-07T05:43:15.716Z,11.70
2018-12-07T05:45:44.100Z,11.80
2018-12-07T05:48:12.470Z,11.80
2018-12-07T05:50:40.854Z,11.80
2018-12-07T05:53:09.204Z,11.80
2018-12-07T05:55:37.561Z,11.80
2018-12-07T05:58:05.905Z,11.90
2018-12-07T06:00:34.331Z,11.80
2018-12-07T06:03:02.738Z,11.90
2018-12-07T06:05:31.202Z,11.90
2018-12-07T06:08:00.597Z,11.90
2018-12-07T06:10:29.061Z,11.90
2018-12-07T06:12:57.421Z,11.80
2018-12-07T06:15:25.868Z,11.80
2018-12-07T06:17:54.226Z,11.80
2018-12-07T06:20:22.542Z,11.80
2018-12-07T06:22:50.878Z,11.90
2018-12-07T06:25:19.302Z,11.80
2018-12-07T06:27:47.713Z,11.80
2018-12-07T06:30:16.170Z,11.80
2018-12-07T06:32:44.500Z,11.80
2018-12-07T06:35:13.054Z,11.90
2018-12-07T06:37:41.425Z,11.80
2018-12-07T06:40:09.805Z,11.80
2018-12-07T06:42:38.261Z,11.90
2018-12-07T06:45:06.896Z,11.90
2018-12-07T06:47:35.288Z,11.80
2018-12-07T06:50:04.097Z,11.80
2018-12-07T06:52:32.458Z,11.90
2018-12-07T06:55:00.854Z,11.90
2018-12-07T06:57:29.293Z,11.90
2018-12-07T06:59:57.768Z,11.90
2018-12-07T07:02:26.116Z,11.90
2018-12-07T07:04:54.430Z,12.00
2018-12-07T07:07:22.818Z,12.00
2018-12-07T07:09:51.232Z,11.90
2018-12-07T07:12:19.603Z,11.80
2018-12-07T07:14:48.074Z,11.80
2018-12-07T07:17:16.481Z,11.80
2018-12-07T07:19:44.845Z,11.80
2018-12-07T07:22:13.182Z,11.70
2018-12-07T07:24:41.560Z,11.60
2018-12-07T07:27:09.904Z,11.60
2018-12-07T07:29:38.314Z,11.50
2018-12-07T07:32:06.395Z,11.50
2018-12-07T07:34:34.785Z,11.40
2018-12-07T07:37:03.114Z,11.40
2018-12-07T07:39:31.478Z,11.30
2018-12-07T07:41:59.938Z,11.30
2018-12-07T07:44:28.391Z,11.30
2018-12-07T07:46:56.778Z,11.20
2018-12-07T07:49:25.179Z,11.20
2018-12-07T07:51:53.774Z,11.20
2018-12-07T07:54:22.221Z,11.10
2018-12-07T07:56:50.649Z,11.10
2018-12-07T07:59:18.995Z,11.10
2018-12-07T08:01:48.532Z,11.00
2018-12-07T08:04:17.194Z,11.00
2018-12-07T08:06:45.772Z,11.00
2018-12-07T08:09:14.129Z,11.00
2018-12-07T08:11:42.551Z,11.00
2018-12-07T08:14:15.594Z,11.00
2018-12-07T08:16:43.945Z,11.00
2018-12-07T08:19:12.288Z,11.00
2018-12-07T08:21:40.848Z,11.00
2018-12-07T08:24:09.330Z,11.00
2018-12-07T08:26:37.790Z,11.10
2018-12-07T08:29:06.145Z,11.10
2018-12-07T08:31:34.725Z,11.10
2018-12-07T08:34:03.784Z,11.10
2018-12-07T08:36:32.212Z,11.10
2018-12-07T08:39:00.530Z,11.10
2018-12-07T08:41:28.986Z,11.10
2018-12-07T08:43:57.345Z,11.10
2018-12-07T08:46:25.836Z,11.20
2018-12-07T08:48:54.186Z,11.20
2018-12-07T08:51:22.537Z,11.10
2018-12-07T08:53:50.924Z,11.10
2018-12-07T08:56:19.341Z,11.10
2018-12-07T08:58:47.711Z,11.10
2018-12-07T09:01:16.129Z,11.10
2018-12-07T09:03:44.732Z,11.20
2018-12-07T09:06:13.295Z,11.20
2018-12-07T09:08:41.879Z,11.30
2018-12-07T09:11:10.400Z,11.30
2018-12-07T09:13:38.724Z,11.40
2018-12-07T09:16:07.167Z,11.40
2018-12-07T09:18:35.477Z,11.40
2018-12-07T09:21:04.427Z,11.40
2018-12-07T09:23:32.805Z,11.50
2018-12-07T09:26:01.194Z,11.50
2018-12-07T09:28:29.889Z,11.50
2018-12-07T09:30:58.524Z,11.50
2018-12-07T09:33:27.017Z,11.60
2018-12-07T09:35:55.541Z,11.60
2018-12-07T09:38:24.021Z,11.60
2018-12-07T09:40:52.399Z,11.60
2018-12-07T09:43:20.776Z,11.70
2018-12-07T09:45:49.160Z,11.70
2018-12-07T09:48:17.696Z,11.70
2018-12-07T09:50:46.170Z,11.70
2018-12-07T09:53:14.517Z,11.80
2018-12-07T09:55:43.067Z,11.70
2018-12-07T09:58:11.436Z,11.60
2018-12-07T10:00:39.973Z,11.50
2018-12-07T10:03:08.398Z,11.40
2018-12-07T10:05:36.740Z,11.30
2018-12-07T10:08:05.189Z,11.30
2018-12-07T10:10:33.703Z,11.30
2018-12-07T10:13:07.888Z,11.30
2018-12-07T10:15:32.485Z,11.40
2018-12-07T10:18:01.622Z,11.40
2018-12-07T10:20:30.188Z,11.50
2018-12-07T10:22:58.588Z,11.50
2018-12-07T10:25:27.009Z,11.50
2018-12-07T10:27:55.404Z,11.50
2018-12-07T10:30:24.352Z,11.60
2018-12-07T10:32:53.024Z,11.60
2018-12-07T10:35:21.981Z,11.60
2018-12-07T10:37:50.485Z,11.60
2018-12-07T10:40:18.850Z,11.70
2018-12-07T10:42:48.130Z,11.70
2018-12-07T10:45:16.611Z,11.70
2018-12-07T10:47:50.330Z,11.70
2018-12-07T10:50:15.339Z,11.70
2018-12-07T10:52:43.700Z,11.80
2018-12-07T10:55:12.290Z,11.80
2018-12-07T10:57:40.756Z,11.80
2018-12-07T11:00:22.695Z,11.80
2018-12-07T11:02:52.593Z,11.80
2018-12-07T11:05:26.293Z,11.70
2018-12-07T11:07:59.908Z,11.80
2018-12-07T11:10:33.660Z,11.80
2018-12-07T11:13:07.407Z,11.80
2018-12-07T11:15:41.132Z,11.70
2018-12-07T11:18:15.297Z,11.70
2018-12-07T11:20:49.030Z,11.70
2018-12-07T11:23:23.794Z,11.80
2018-12-07T11:25:57.572Z,11.80
2018-12-07T11:28:31.293Z,11.80
2018-12-07T11:31:05.071Z,11.80
2018-12-07T11:33:38.481Z,11.70
2018-12-07T11:36:08.290Z,11.70
2018-12-07T11:38:36.813Z,11.70
2018-12-07T11:41:05.165Z,11.70
2018-12-07T11:43:33.603Z,11.60
2018-12-07T11:46:01.980Z,11.60
2018-12-07T11:48:30.446Z,11.70
2018-12-07T11:50:58.825Z,11.70
2018-12-07T11:53:27.305Z,11.70
2018-12-07T11:55:55.680Z,11.70
2018-12-07T11:58:24.715Z,11.70
2018-12-07T12:00:53.052Z,11.70
2018-12-07T12:03:21.429Z,11.70
2018-12-07T12:05:49.796Z,11.70
2018-12-07T12:08:18.228Z,11.70
2018-12-07T12:10:46.599Z,11.70
2018-12-07T12:13:14.965Z,11.80
2018-12-07T12:15:43.392Z,11.70
2018-12-07T12:18:11.804Z,11.70
2018-12-07T12:20:40.171Z,11.70
2018-12-07T12:23:08.529Z,11.60
2018-12-07T12:25:37.009Z,11.70
2018-12-07T12:28:05.416Z,11.70
2018-12-07T12:30:33.850Z,11.70
2018-12-07T12:33:02.237Z,11.60
2018-12-07T12:35:30.655Z,11.60
2018-12-07T12:37:59.061Z,11.50
2018-12-07T12:40:27.482Z,11.40
2018-12-07T12:42:55.856Z,11.20
2018-12-07T12:45:24.464Z,11.10
2018-12-07T12:47:52.874Z,11.00
2018-12-07T12:50:26.609Z,11.00
2018-12-07T12:52:54.988Z,11.00
2018-12-07T12:55:23.435Z,11.00
2018-12-07T12:57:51.796Z,11.00
2018-12-07T13:00:20.272Z,11.00
2018-12-07T13:02:48.654Z,11.00
2018-12-07T13:05:17.012Z,11.00
2018-12-07T13:07:45.444Z,11.10
2018-12-07T13:10:13.891Z,11.10
2018-12-07T13:12:42.777Z,11.10
2018-12-07T13:15:11.144Z,11.10
2018-12-07T13:17:39.583Z,11.10
2018-12-07T13:20:08.971Z,11.10
2018-12-07T13:22:38.335Z,11.10
2018-12-07T13:25:07.540Z,11.10
2018-12-07T13:27:35.922Z,11.00
2018-12-07T13:30:04.996Z,11.00
2018-12-07T13:32:33.553Z,11.00
2018-12-07T13:35:01.923Z,11.00
2018-12-07T13:37:30.373Z,11.00
2018-12-07T13:39:58.910Z,11.00
2018-12-07T13:42:27.654Z,11.00
2018-12-07T13:44:56.261Z,11.00
2018-12-07T13:47:24.940Z,11.00
2018-12-07T13:49:58.378Z,11.10
2018-12-07T13:52:27.174Z,11.00
2018-12-07T13:54:55.670Z,11.00
2018-12-07T13:57:24.329Z,11.10
2018-12-07T13:59:52.933Z,11.10
2018-12-07T14:02:21.390Z,11.10
2018-12-07T14:04:50.010Z,11.20
2018-12-07T14:07:18.571Z,11.20
2018-12-07T14:09:47.231Z,11.20
2018-12-07T14:12:15.749Z,11.20
2018-12-07T14:14:44.557Z,11.20
2018-12-07T14:17:13.133Z,11.30
2018-12-07T14:19:41.572Z,11.30
2018-12-07T14:22:09.996Z,11.30
2018-12-07T14:24:38.462Z,11.30
2018-12-07T14:27:06.853Z,11.30
2018-12-07T14:29:35.317Z,11.30
2018-12-07T14:32:03.689Z,11.30
2018-12-07T14:34:32.072Z,11.30
2018-12-07T14:37:00.514Z,11.30
2018-12-07T14:39:29.320Z,11.30
2018-12-07T14:41:57.752Z,11.30
2018-12-07T14:44:26.425Z,11.30
2018-12-07T14:46:55.018Z,11.30
2018-12-07T14:49:23.563Z,11.30
2018-12-07T14:51:52.080Z,11.40
2018-12-07T14:54:20.659Z,11.30
2018-12-07T14:56:49.499Z,11.30
2018-12-07T14:59:18.301Z,11.30
2018-12-07T15:01:46.839Z,11.30
2018-12-07T15:04:15.322Z,11.20
2018-12-07T15:06:43.881Z,11.20
2018-12-07T15:09:12.373Z,11.20
2018-12-07T15:11:40.809Z,11.20
2018-12-07T15:14:09.434Z,11.20
2018-12-07T15:16:37.983Z,11.20
2018-12-07T15:19:06.644Z,11.20
2018-12-07T15:21:35.093Z,11.20
2018-12-07T15:24:03.691Z,11.10
2018-12-07T15:26:32.292Z,11.10
2018-12-07T15:29:00.948Z,11.00
2018-12-07T15:31:29.411Z,10.90
2018-12-07T15:33:58.062Z,10.70
2018-12-07T15:36:26.668Z,10.50
2018-12-07T15:38:55.348Z,10.40
2018-12-07T15:41:23.842Z,10.40
2018-12-07T15:43:52.269Z,10.40
2018-12-07T15:46:20.798Z,10.40
2018-12-07T15:48:49.383Z,10.40
2018-12-07T15:51:18.038Z,10.40
2018-12-07T15:53:46.661Z,10.40
2018-12-07T15:56:15.343Z,10.40
2018-12-07T15:58:43.793Z,10.40
2018-12-07T16:01:12.278Z,10.50
2018-12-07T16:03:40.731Z,10.50
2018-12-07T16:06:09.184Z,10.50
2018-12-07T16:08:37.547Z,10.50
2018-12-07T16:11:06.115Z,10.50
2018-12-07T16:13:34.604Z,10.50
2018-12-07T16:16:03.246Z,10.50
2018-12-07T16:18:31.945Z,10.40
2018-12-07T16:21:04.929Z,10.40
2018-12-07T16:23:33.540Z,10.50
2018-12-07T16:26:02.371Z,10.50
2018-12-07T16:28:30.880Z,10.50
2018-12-07T16:30:59.620Z,10.60
2018-12-07T16:33:28.425Z,10.60
2018-12-07T16:35:56.931Z,10.70
2018-12-07T16:38:25.428Z,10.80
2018-12-07T16:40:53.949Z,10.80
2018-12-07T16:43:22.577Z,10.90
2018-12-07T16:45:51.077Z,10.80
2018-12-07T16:48:19.988Z,10.90
2018-12-07T16:50:48.404Z,10.90
2018-12-07T16:53:16.982Z,10.90
2018-12-07T16:55:45.590Z,10.90
2018-12-07T16:58:14.030Z,10.80
2018-12-07T17:00:42.682Z,10.80
2018-12-07T17:03:11.251Z,10.70
2018-12-07T17:05:39.861Z,10.70
2018-12-07T17:08:08.438Z,10.60
2018-12-07T17:10:36.993Z,10.60
2018-12-07T17:13:06.256Z,10.50
2018-12-07T17:15:35.256Z,10.50
2018-12-07T17:18:05.031Z,10.50
2018-12-07T17:20:33.936Z,10.50
2018-12-07T17:23:02.604Z,10.40
2018-12-07T17:25:31.148Z,10.40
2018-12-07T17:27:59.701Z,10.40
2018-12-07T17:30:28.145Z,10.30
2018-12-07T17:32:56.692Z,10.30
2018-12-07T17:35:25.177Z,10.30
2018-12-07T17:37:54.146Z,10.30
2018-12-07T17:40:22.774Z,10.30
2018-12-07T17:42:51.347Z,10.20
2018-12-07T17:45:20.157Z,10.20
2018-12-07T17:47:48.926Z,10.10
2018-12-07T17:50:17.449Z,10.00
2018-12-07T17:52:46.178Z,10.00
2018-12-07T17:55:14.879Z,10.00
2018-12-07T17:57:43.305Z,10.00
2018-12-07T18:00:13.026Z,10.00
2018-12-07T18:02:41.569Z,10.00
2018-12-07T18:05:10.212Z,9.90
2018-12-07T18:07:38.690Z,9.90
2018-12-07T18:10:09.127Z,9.90
2018-12-07T18:12:38.184Z,9.90
2018-12-07T18:15:08.138Z,9.90
2018-12-07T18:17:36.742Z,9.90
2018-12-07T18:20:06.469Z,9.80
2018-12-07T18:22:34.986Z,9.80
2018-12-07T18:25:03.589Z,9.80
2018-12-07T18:27:31.999Z,9.80
2018-12-07T18:30:00.591Z,9.80
2018-12-07T18:32:29.092Z,9.80
2018-12-07T18:34:57.450Z,9.80
2018-12-07T18:37:25.911Z,9.80
2018-12-07T18:39:55.100Z,9.70
2018-12-07T18:42:23.537Z,9.80
2018-12-07T18:44:52.153Z,9.80
2018-12-07T18:47:20.858Z,9.70
2018-12-07T18:49:50.399Z,9.80
2018-12-07T18:52:19.013Z,9.80
2018-12-07T18:54:47.888Z,9.80
2018-12-07T18:57:17.127Z,9.80
2018-12-07T18:59:45.882Z,9.80
2018-12-07T19:02:19.248Z,9.80
2018-12-07T19:04:47.884Z,9.80
2018-12-07T19:07:17.902Z,9.80
2018-12-07T19:09:46.482Z,9.80
2018-12-07T19:12:15.044Z,9.80
2018-12-07T19:14:43.680Z,9.80
2018-12-07T19:17:12.125Z,9.90
2018-12-07T19:19:40.561Z,9.90
2018-12-07T19:22:09.054Z,9.90
2018-12-07T19:24:37.468Z,10.00
2018-12-07T19:27:06.272Z,10.00
2018-12-07T19:29:34.853Z,10.00
2018-12-07T19:32:03.611Z,10.10
2018-12-07T19:34:32.222Z,10.10
2018-12-07T19:37:00.696Z,10.10
2018-12-07T19:39:29.155Z,10.20
2018-12-07T19:41:57.569Z,10.30
2018-12-07T19:44:25.948Z,10.30
2018-12-07T19:46:54.472Z,10.40
2018-12-07T19:49:23.245Z,10.50
2018-12-07T19:51:51.984Z,10.50
2018-12-07T19:54:20.626Z,10.50
2018-12-07T19:56:49.467Z,10.40
2018-12-07T19:59:17.930Z,10.40
2018-12-07T20:01:46.354Z,10.40
2018-12-07T20:04:14.886Z,10.40
2018-12-07T20:06:43.356Z,10.50
2018-12-07T20:09:11.905Z,10.50
2018-12-07T20:11:40.557Z,10.50
2018-12-07T20:14:09.260Z,10.40
2018-12-07T20:16:37.775Z,10.40
2018-12-07T20:19:06.499Z,10.40
2018-12-07T20:21:35.116Z,10.40
2018-12-07T20:24:03.804Z,10.20
2018-12-07T20:26:32.397Z,10.10
2018-12-07T20:29:01.224Z,10.00
2018-12-07T20:31:30.044Z,9.90
2018-12-07T20:33:58.774Z,9.90
2018-12-07T20:36:27.262Z,9.80
2018-12-07T20:38:55.904Z,9.80
2018-12-07T20:41:24.692Z,9.80
2018-12-07T20:43:53.953Z,9.80
2018-12-07T20:46:22.897Z,9.70
2018-12-07T20:48:51.429Z,9.70
2018-12-07T20:51:19.894Z,9.70
2018-12-07T20:53:48.360Z,9.60
2018-12-07T20:56:17.575Z,9.50
2018-12-07T20:58:45.961Z,9.60
2018-12-07T21:01:14.825Z,9.50
2018-12-07T21:04:15.908Z,9.50
2018-12-07T21:07:06.732Z,9.50
2018-12-07T21:09:36.183Z,9.40
2018-12-07T21:12:18.501Z,9.40
2018-12-07T21:14:50.267Z,9.40
2018-12-07T21:17:25.569Z,9.30
2018-12-07T21:20:30.003Z,9.40
2018-12-07T21:22:58.673Z,9.30
2018-12-07T21:25:27.636Z,9.20
2018-12-07T21:27:56.376Z,9.20
2018-12-07T21:30:49.640Z,9.20
2018-12-07T21:33:25.888Z,9.10
2018-12-07T21:36:17.183Z,9.20
2018-12-07T21:38:45.616Z,9.10
2018-12-07T21:41:14.015Z,9.10
2018-12-07T21:43:42.853Z,9.00
2018-12-07T21:46:11.640Z,9.00
2018-12-07T21:48:40.736Z,8.90
2018-12-07T21:51:18.855Z,8.80
2018-12-07T21:53:47.530Z,8.80
2018-12-07T21:56:16.292Z,8.70
2018-12-07T21:58:44.684Z,8.60
2018-12-07T22:01:13.463Z,8.60
2018-12-07T22:03:42.225Z,8.50
2018-12-07T22:06:10.678Z,8.40
2018-12-07T22:08:39.238Z,8.40
2018-12-07T22:11:08.358Z,8.40
2018-12-07T22:13:37.187Z,8.30
2018-12-07T22:16:05.696Z,8.20
2018-12-07T22:18:34.275Z,8.20
2018-12-07T22:21:02.720Z,8.10
2018-12-07T22:23:31.517Z,8.10
2018-12-07T22:26:01.136Z,8.10
2018-12-07T22:28:30.440Z,8.10
2018-12-07T22:30:58.905Z,8.10
2018-12-07T22:33:27.652Z,8.00
2018-12-07T22:35:56.200Z,8.00
2018-12-07T22:38:24.852Z,8.00
2018-12-07T22:40:53.710Z,7.90
2018-12-07T22:43:22.633Z,7.90
2018-12-07T22:45:51.720Z,7.90
2018-12-07T22:48:20.321Z,7.80
2018-12-07T22:50:48.794Z,7.80
2018-12-07T22:53:17.181Z,7.80
2018-12-07T22:55:45.646Z,7.80
2018-12-07T22:58:14.045Z,7.70
2018-12-07T23:00:44.125Z,7.80
2018-12-07T23:03:12.771Z,7.80
2018-12-07T23:05:41.192Z,7.70
2018-12-07T23:08:09.539Z,7.70
2018-12-07T23:10:37.925Z,7.70
2018-12-07T23:13:16.033Z,7.60
2018-12-07T23:15:44.460Z,7.60
2018-12-07T23:18:12.839Z,7.60
2018-12-07T23:20:41.228Z,7.70
2018-12-07T23:23:09.628Z,7.70
2018-12-07T23:25:38.034Z,7.80
2018-12-07T23:28:06.504Z,7.90
2018-12-07T23:30:34.966Z,7.90
2018-12-07T23:33:03.408Z,7.90
2018-12-07T23:35:31.865Z,7.80
2018-12-07T23:38:00.214Z,7.80
2018-12-07T23:40:28.578Z,7.80
2018-12-07T23:43:05.392Z,7.80
2018-12-07T23:45:34.030Z,7.80
2018-12-07T23:48:02.755Z,7.70
2018-12-07T23:50:31.245Z,7.80
2018-12-07T23:52:59.710Z,7.70
2018-12-07T23:55:28.142Z,7.70
2018-12-07T23:57:56.519Z,7.80
